Cuiabá, Brazil

12:37 PM AMST em 09 de Fevereiro de 2016 (GMT -0300)
Marechal Rondon International | | Change Station
CLOSE
Current Station
Aeroporto
Location: Cuiaba Marechal Ron,
Altitude: 617 ft
Estações Meteorológicas Próximas

Elev 617 ft 15.65 °S, 56.12 °W | Updated 37 minutes ago

Partly Cloudy
Parcialmente Nublado
91 °F
Aparente 100 °F
N
9
Vento Variável Vento de NNO

Hoje
Máxima -- | Mínima -- °F
--% Possibilidade de Precip.
Ontem
Máxima -- | Mínima -- °F
Precip. -- pol
Pressão 30.01 pol
Visibilidade 6.2 milhas
Nuvens Poucas 2000 ft
Índice de Calor 100 °F
Ponto de Orvalho 73 °F
Humidade 55%
Chuva 0.00 pol
Altura de Neve Não disponível
6:38 AM 7:18 PM
Lua nova, 1% visible
METAR SBCY 091500Z 33008KT 9999 FEW020 33/23 Q1016
Pressão 30.01 pol
Visibilidade 6.2 milhas
Nuvens Poucas 2000 ft
Índice de Calor 100 °F
Ponto de Orvalho 73 °F
Humidade 55%
Chuva 0.00 pol
Altura de Neve Não disponível
6:38 AM 7:18 PM
Lua nova, 1% visible
METAR SBCY 091500Z 33008KT 9999 FEW020 33/23 Q1016

10-Day Weather Forecast

No radar image for this location.
×

Almanac

Astronomia

Feb. 09, 2016 Nascer Pôr
Hora atual
Crepúsculo civil
Crepúsculo náutico
Crepúsculo astronómico
Lua
Comprimento da luz visível
Duração do Dia
Tomorrow will be .
, % of the Moon is Illuminated

Extremos de Hoje

Altitude na localidade Altura mais baixa na localidade

Community

WunderPhotos

Upload Photos

1,891,619 fotografias inseridas!

WunderBlog® & News

Nearby

Qualidade do Ar

  Qualidade do Ar Índice da Q.A. Poluente
Not available.

Altura da Neve

Estação altura Altitude

Actividade Sísmisca

Cidade Distância Mag. Hora & Data
Mínima magnitude apresentada é 2.5.

Temperaturas das Águas Costeiras

Local Temperatura

Stations

Estações Meteorológicas Próximas

Localização da Estação Temp. Sensação Térmica Ponto de Orvalho Humidade Vento Precip. Elev Actualizado Tipo